Time;durP1;ratioP1;P1;durP2;ratioP2;P2;SDS_P1;SDS_P2;PMS_P1;PMS_P2;Temp;Humidity;BMP_temperature;BMP_pressure;BME280_temperature;BME280_humidity;BME280_pressure;Samples;Min_cycle;Max_cycle;Signal;HPM_P1;HPM_P2
2022/10/11 00:02:03;;;;;;;15.05;11.52;;;16.40;99.90;;;;;;5012517;28;20036;-65
2022/10/11 00:05:08;;;;;;;17.23;10.20;;;16.40;99.90;;;;;;5011580;28;20053;-65
2022/10/11 00:08:13;;;;;;;13.48;10.00;;;16.40;99.90;;;;;;5012643;28;20045;-65
2022/10/11 00:11:17;;;;;;;16.00;10.00;;;16.40;99.90;;;;;;5012428;28;20048;-65
2022/10/11 00:14:23;;;;;;;13.82;10.43;;;16.40;99.90;;;;;;5011984;28;20041;-65
2022/10/11 00:17:26;;;;;;;13.70;10.25;;;16.40;99.90;;;;;;5012015;28;20041;-65
2022/10/11 00:20:30;;;;;;;15.30;9.82;;;16.50;99.90;;;;;;5012661;28;20048;-65
2022/10/11 00:23:09;;;;;;;16.00;10.38;;;16.30;99.90;;;;;;5129133;27;20131;-65
2022/10/11 00:25:56;;;;;;;14.02;9.38;;;15.00;99.90;;;;;;5129171;27;20119;-66
2022/10/11 00:28:33;;;;;;;15.82;9.15;;;16.30;99.90;;;;;;5129048;27;20729;-65
2022/10/11 00:31:13;;;;;;;12.68;9.80;;;16.30;99.90;;;;;;5068241;28;20420;-66
2022/10/11 00:33:52;;;;;;;17.17;10.48;;;16.30;99.90;;;;;;5067362;28;20385;-66
2022/10/11 00:36:30;;;;;;;15.55;11.38;;;16.20;99.90;;;;;;5068347;28;20379;-66
2022/10/11 00:39:09;;;;;;;21.88;10.88;;;16.30;99.90;;;;;;5068561;28;20374;-65
2022/10/11 00:41:48;;;;;;;15.80;11.43;;;16.20;99.90;;;;;;5068290;28;20378;-66
2022/10/11 00:44:27;;;;;;;16.90;11.25;;;16.30;99.90;;;;;;5067712;28;20776;-66
2022/10/11 00:47:11;;;;;;;15.00;10.88;;;16.20;99.90;;;;;;5067710;28;20390;-66
2022/10/11 00:49:54;;;;;;;15.90;10.90;;;16.20;99.90;;;;;;5068137;28;20378;-66
2022/10/11 00:52:36;;;;;;;18.13;11.25;;;16.20;99.90;;;;;;5068146;28;20763;-65
2022/10/11 00:55:19;;;;;;;16.23;11.15;;;16.20;99.90;;;;;;5067135;28;20676;-65
2022/10/11 00:57:57;;;;;;;18.77;11.77;;;16.10;99.90;;;;;;5068028;28;20375;-66
2022/10/11 01:00:35;;;;;;;18.73;11.82;;;16.10;99.90;;;;;;5068189;28;20745;-66
2022/10/11 01:03:11;;;;;;;15.75;11.52;;;16.10;99.90;;;;;;5067719;28;20135;-65
2022/10/11 01:05:50;;;;;;;21.83;12.05;;;16.10;99.90;;;;;;5068053;28;20386;-66
2022/10/11 01:08:29;;;;;;;16.50;11.65;;;17.70;99.90;;;;;;5068228;28;20386;-66
2022/10/11 01:11:12;;;;;;;19.80;12.48;;;16.10;99.90;;;;;;5067881;28;20383;-65
2022/10/11 01:14:17;;;;;;;18.80;11.82;;;16.20;99.90;;;;;;5067450;28;20428;-65
2022/10/11 01:17:22;;;;;;;17.13;12.77;;;16.10;99.90;;;;;;5067919;28;20386;-66
2022/10/11 01:20:41;;;;;;;19.88;13.30;;;16.10;99.90;;;;;;5068137;28;20378;-66
2022/10/11 01:23:49;;;;;;;18.33;12.98;;;16.00;99.90;;;;;;5067198;28;20379;-66
2022/10/11 01:27:02;;;;;;;15.57;12.40;;;16.00;99.90;;;;;;5068032;27;20383;-66
2022/10/11 01:30:15;;;;;;;21.67;14.35;;;16.00;99.90;;;;;;5067933;28;20387;-66
2022/10/11 01:33:13;;;;;;;20.50;14.52;;;15.90;99.90;;;;;;5067959;28;20375;-65
2022/10/11 01:36:11;;;;;;;19.65;14.23;;;15.90;99.90;;;;;;5088279;27;20400;-65
2022/10/11 01:39:13;;;;;;;20.30;14.45;;;15.90;99.90;;;;;;5129228;27;20314;-64
2022/10/11 01:41:55;;;;;;;21.17;14.65;;;15.90;99.90;;;;;;5068058;28;20367;-64
2022/10/11 01:44:34;;;;;;;24.15;14.95;;;15.90;99.90;;;;;;5067673;28;20382;-66
2022/10/11 01:47:12;;;;;;;24.48;15.23;;;15.90;99.90;;;;;;5068045;28;20398;-64
2022/10/11 01:49:58;;;;;;;25.67;15.23;;;15.80;99.90;;;;;;5150054;27;20760;-65
2022/10/11 01:52:42;;;;;;;21.67;15.18;;;15.80;99.90;;;;;;5129425;27;20401;-65
2022/10/11 01:55:33;;;;;;;19.85;15.10;;;15.80;99.90;;;;;;5067886;28;20374;-65
2022/10/11 01:58:27;;;;;;;22.55;16.00;;;15.80;99.90;;;;;;5129172;27;20386;-65
2022/10/11 02:01:19;;;;;;;24.02;14.63;;;15.80;99.90;;;;;;5068444;28;20393;-65
2022/10/11 02:03:57;;;;;;;23.45;16.05;;;15.90;99.90;;;;;;5027685;28;20923;-65
2022/10/11 02:06:53;;;;;;;28.17;17.55;;;15.70;99.90;;;;;;5068251;28;20139;-65
2022/10/11 02:09:51;;;;;;;19.67;14.98;;;15.60;99.90;;;;;;5129202;27;20314;-65
2022/10/11 02:12:38;;;;;;;21.05;15.75;;;15.60;99.90;;;;;;5067959;28;20184;-65
2022/10/11 02:15:18;;;;;;;28.75;15.50;;;15.60;99.90;;;;;;5067286;28;20378;-65
2022/10/11 02:17:58;;;;;;;26.00;16.30;;;15.60;99.90;;;;;;5067917;28;20386;-65
2022/10/11 02:20:39;;;;;;;25.83;15.15;;;15.70;99.90;;;;;;5068177;28;20374;-65
2022/10/11 02:23:28;;;;;;;21.70;15.07;;;15.70;99.90;;;;;;5067585;28;20394;-65
2022/10/11 02:26:07;;;;;;;20.83;14.77;;;15.70;99.90;;;;;;5068002;28;20885;-65
2022/10/11 02:28:46;;;;;;;19.83;13.93;;;15.70;99.90;;;;;;5068214;28;20370;-66
2022/10/11 02:31:24;;;;;;;24.60;15.00;;;15.70;99.90;;;;;;5129051;27;20458;-65
2022/10/11 02:34:08;;;;;;;30.45;15.82;;;15.60;99.90;;;;;;5087747;28;20376;-65
2022/10/11 02:36:58;;;;;;;23.73;15.80;;;15.50;99.90;;;;;;5068319;28;21036;-65
2022/10/11 02:39:50;;;;;;;26.30;16.02;;;15.30;99.90;;;;;;5067608;28;20375;-65
2022/10/11 02:42:36;;;;;;;24.45;16.33;;;15.20;99.90;;;;;;5068263;28;20386;-65
2022/10/11 02:45:17;;;;;;;26.60;17.30;;;15.20;99.90;;;;;;5067377;28;20409;-65
2022/10/11 02:47:54;;;;;;;24.02;18.13;;;15.10;99.90;;;;;;5067811;28;20980;-65
2022/10/11 02:50:32;;;;;;;22.90;17.63;;;15.10;99.90;;;;;;5068133;28;20382;-65
2022/10/11 02:53:09;;;;;;;27.17;19.52;;;15.10;99.90;;;;;;5068480;28;20135;-65
2022/10/11 02:55:48;;;;;;;30.15;19.83;;;15.10;99.90;;;;;;5068064;28;20798;-65
2022/10/11 02:58:27;;;;;;;31.25;20.23;;;15.10;99.90;;;;;;5067785;28;20386;-65
2022/10/11 03:01:05;;;;;;;31.15;19.48;;;15.20;99.90;;;;;;5068039;28;20379;-65
2022/10/11 03:03:43;;;;;;;22.23;17.05;;;15.20;99.90;;;;;;5067347;28;20390;-65
2022/10/11 03:06:20;;;;;;;22.85;16.33;;;15.20;99.90;;;;;;5088350;27;20885;-65
2022/10/11 03:08:58;;;;;;;21.20;16.23;;;15.10;99.90;;;;;;5068069;28;20389;-66
2022/10/11 03:11:34;;;;;;;19.88;14.18;;;15.10;99.90;;;;;;5068366;28;20134;-66
2022/10/11 03:14:11;;;;;;;23.77;15.57;;;15.10;99.90;;;;;;5067524;28;20135;-66
2022/10/11 03:16:47;;;;;;;18.90;14.02;;;15.00;99.90;;;;;;5068191;28;20139;-64
2022/10/11 03:19:26;;;;;;;21.17;14.10;;;15.00;99.90;;;;;;5068550;28;20382;-66
2022/10/11 03:22:04;;;;;;;19.08;12.95;;;15.00;99.90;;;;;;5068258;28;20394;-66
2022/10/11 03:24:42;;;;;;;18.67;13.48;;;15.00;99.90;;;;;;5067565;28;20464;-65
2022/10/11 03:27:19;;;;;;;17.98;13.05;;;15.00;99.90;;;;;;5067786;28;20134;-66
2022/10/11 03:29:56;;;;;;;21.95;13.50;;;15.00;99.90;;;;;;5068080;28;20133;-65
2022/10/11 03:32:34;;;;;;;20.90;13.35;;;15.10;99.90;;;;;;5068724;28;20401;-65
2022/10/11 03:35:12;;;;;;;22.77;13.50;;;15.00;99.90;;;;;;5067388;28;20383;-66
2022/10/11 03:37:49;;;;;;;20.63;13.20;;;15.00;99.90;;;;;;5067874;28;20185;-65
2022/10/11 03:40:27;;;;;;;22.13;11.40;;;15.00;99.90;;;;;;5067880;28;20389;-66
2022/10/11 03:43:03;;;;;;;16.20;10.70;;;15.00;99.90;;;;;;5067976;28;20130;-65
2022/10/11 03:45:43;;;;;;;17.67;10.70;;;15.00;99.90;;;;;;5067562;28;20161;-65
2022/10/11 03:48:20;;;;;;;12.18;10.07;;;15.10;99.90;;;;;;5108567;27;20381;-65
2022/10/11 03:50:56;;;;;;;15.27;10.10;;;15.10;99.90;;;;;;5068252;28;20157;-66
2022/10/11 03:53:34;;;;;;;17.52;10.57;;;14.80;99.90;;;;;;5067513;28;20397;-64
2022/10/11 03:56:11;;;;;;;16.33;10.40;;;15.10;99.90;;;;;;5068035;28;20622;-65
2022/10/11 03:58:49;;;;;;;15.40;10.32;;;15.10;99.90;;;;;;5108360;27;20743;-65
2022/10/11 04:01:29;;;;;;;14.98;10.55;;;;;;;;;;5129363;27;20711;-65
2022/10/11 04:04:07;;;;;;;15.93;11.55;;;15.20;99.90;;;;;;5067572;28;20375;-65
2022/10/11 04:06:44;;;;;;;18.50;12.68;;;14.50;99.90;;;;;;5068007;28;20161;-66
2022/10/11 04:09:22;;;;;;;16.27;12.15;;;15.20;99.90;;;;;;5068093;28;20371;-65
2022/10/11 04:11:59;;;;;;;17.77;11.13;;;15.20;99.90;;;;;;5068126;28;20139;-66
2022/10/11 04:14:37;;;;;;;16.70;10.27;;;15.10;99.90;;;;;;5128591;27;20371;-65
2022/10/11 04:17:13;;;;;;;17.63;11.23;;;15.10;99.90;;;;;;5068302;28;20131;-65
2022/10/11 04:19:51;;;;;;;16.92;11.18;;;15.10;99.90;;;;;;5067704;28;20386;-65
2022/10/11 04:22:31;;;;;;;14.93;10.38;;;15.10;99.90;;;;;;5108812;27;20882;-65
2022/10/11 04:25:09;;;;;;;14.00;11.18;;;15.00;99.90;;;;;;5067341;28;20892;-65
2022/10/11 04:27:46;;;;;;;19.27;12.75;;;15.00;99.90;;;;;;5068075;28;20800;-64
2022/10/11 04:30:24;;;;;;;19.83;12.43;;;15.00;99.90;;;;;;5068055;28;20792;-65
2022/10/11 04:33:01;;;;;;;16.83;12.13;;;15.00;99.90;;;;;;5125861;27;20520;-51
2022/10/11 04:35:39;;;;;;;18.42;13.00;;;14.90;99.90;;;;;;5066560;28;20795;-51
2022/10/11 04:38:16;;;;;;;16.98;13.35;;;14.80;99.90;;;;;;5066744;28;20523;-51
2022/10/11 04:40:52;;;;;;;18.20;12.75;;;14.80;99.90;;;;;;5066441;28;20134;-51
2022/10/11 04:43:28;;;;;;;20.80;13.18;;;14.80;99.90;;;;;;5108861;27;1312738;-54
2022/10/11 04:46:06;;;;;;;21.58;14.30;;;14.80;99.90;;;;;;5067019;28;20391;-51
2022/10/11 04:48:44;;;;;;;22.48;16.63;;;14.80;99.90;;;;;;5065692;28;20382;-51
2022/10/11 04:51:21;;;;;;;26.63;17.30;;;14.80;99.90;;;;;;5127526;27;20177;-55
2022/10/11 04:53:59;;;;;;;22.23;16.95;;;14.80;99.90;;;;;;5126945;27;20783;-53
2022/10/11 04:56:35;;;;;;;37.70;21.83;;;14.80;99.90;;;;;;5066346;28;20623;-51
2022/10/11 04:59:13;;;;;;;34.88;22.55;;;14.80;99.90;;;;;;5066049;27;20379;-51
2022/10/11 05:01:50;;;;;;;37.03;22.10;;;14.80;99.90;;;;;;5066194;28;20134;-52
2022/10/11 05:04:27;;;;;;;30.73;21.48;;;14.80;99.90;;;;;;5065954;28;20497;-52
2022/10/11 05:07:05;;;;;;;37.45;23.42;;;14.70;99.90;;;;;;5067023;28;20827;-54
2022/10/11 05:09:43;;;;;;;34.28;22.55;;;14.70;99.90;;;;;;5066133;28;20456;-52
2022/10/11 05:12:20;;;;;;;39.03;24.15;;;14.70;99.90;;;;;;5066395;28;20512;-51
2022/10/11 05:14:57;;;;;;;35.60;23.35;;;14.70;99.90;;;;;;5066023;28;20154;-53
2022/10/11 05:17:34;;;;;;;39.92;25.90;;;14.70;99.90;;;;;;5066562;28;20425;-53
2022/10/11 05:20:11;;;;;;;39.10;26.00;;;14.70;99.90;;;;;;5066126;28;20142;-51
2022/10/11 05:22:49;;;;;;;38.40;25.10;;;14.80;99.90;;;;;;5046699;28;20380;-52
2022/10/11 05:25:27;;;;;;;36.92;24.85;;;14.80;99.90;;;;;;5066250;28;20371;-52
2022/10/11 05:28:04;;;;;;;43.00;25.90;;;14.80;99.90;;;;;;5066337;28;20651;-52
2022/10/11 05:30:42;;;;;;;37.78;26.02;;;14.70;99.90;;;;;;5066297;28;21179;-53
2022/10/11 05:33:19;;;;;;;39.20;25.83;;;14.80;99.90;;;;;;5065630;28;20145;-51
2022/10/11 05:35:57;;;;;;;34.40;23.20;;;14.80;99.90;;;;;;5066531;28;20383;-52
2022/10/11 05:38:34;;;;;;;33.85;23.85;;;14.80;99.90;;;;;;5066363;28;20134;-54
2022/10/11 05:41:14;;;;;;;33.13;22.88;;;14.80;99.90;;;;;;5066236;28;20375;-52
2022/10/11 05:43:52;;;;;;;30.55;20.27;;;14.80;99.90;;;;;;5066284;28;20383;-51
2022/10/11 05:46:28;;;;;;;33.38;21.92;;;14.80;99.90;;;;;;5107523;27;20125;-51
2022/10/11 05:49:06;;;;;;;29.48;20.73;;;14.90;99.90;;;;;;5066603;28;20389;-52
2022/10/11 05:51:43;;;;;;;32.40;20.05;;;15.00;99.90;;;;;;5066345;28;20142;-53
2022/10/11 05:54:21;;;;;;;34.15;21.02;;;15.00;99.90;;;;;;5066098;28;20383;-54
2022/10/11 05:56:58;;;;;;;28.15;20.17;;;15.20;99.90;;;;;;5069178;28;20142;-54
2022/10/11 05:59:35;;;;;;;34.30;20.73;;;15.30;99.90;;;;;;5113447;27;20954;-55
2022/10/11 06:02:13;;;;;;;29.08;18.65;;;15.50;99.90;;;;;;5055090;28;20402;-54
2022/10/11 06:04:49;;;;;;;26.75;19.90;;;15.50;99.90;;;;;;5073510;28;20129;-51
2022/10/11 06:07:27;;;;;;;27.20;19.27;;;15.70;99.90;;;;;;5078294;28;20142;-52
2022/10/11 06:10:05;;;;;;;26.85;17.17;;;16.80;99.90;;;;;;5075529;28;20428;-52
2022/10/11 06:12:42;;;;;;;23.75;16.30;;;18.00;99.90;;;;;;5052455;28;20392;-51
2022/10/11 06:15:37;;;;;;;19.60;14.65;;;18.90;99.90;;;;;;5086199;27;20931;-50
2022/10/11 06:18:29;;;;;;;18.95;13.68;;;19.30;99.90;;;;;;5086923;27;20394;-52
2022/10/11 06:21:24;;;;;;;17.75;13.50;;;19.00;99.90;;;;;;5126865;27;20313;-54
2022/10/11 06:24:19;;;;;;;19.88;14.00;;;18.50;99.90;;;;;;5187364;27;20398;-51
2022/10/11 06:27:28;;;;;;;19.00;14.20;;;18.20;99.90;;;;;;5113781;27;20346;-55
2022/10/11 06:30:37;;;;;;;19.27;13.55;;;18.10;99.90;;;;;;5129527;27;21173;-52
2022/10/11 06:33:32;;;;;;;19.92;13.77;;;18.00;99.90;;;;;;5185890;27;20396;-52
2022/10/11 06:36:27;;;;;;;18.23;12.63;;;18.20;99.90;;;;;;5087123;27;20414;-50
2022/10/11 06:39:22;;;;;;;15.82;12.82;;;18.70;99.90;;;;;;5174894;27;20844;-52
2022/10/11 06:42:19;;;;;;;16.00;12.45;;;19.10;99.90;;;;;;5085406;27;20672;-51
2022/10/11 06:45:29;;;;;;;17.38;12.25;;;19.60;99.90;;;;;;5121350;27;20318;-52
2022/10/11 06:48:32;;;;;;;20.80;12.05;;;20.50;99.90;;;;;;5133909;27;20398;-51
2022/10/11 06:51:24;;;;;;;16.63;12.02;;;21.90;99.90;;;;;;5085944;27;20912;-55
2022/10/11 06:54:18;;;;;;;19.00;11.43;;;22.20;99.90;;;;;;5087261;27;20757;-52
2022/10/11 06:57:22;;;;;;;13.63;11.05;;;22.20;99.90;;;;;;5106812;27;20347;-54
2022/10/11 07:00:17;;;;;;;13.43;11.07;;;22.30;99.90;;;;;;5135491;27;20880;-51
2022/10/11 07:02:53;;;;;;;16.52;12.10;;;22.30;99.90;;;;;;4622418;27;15054982;-52
2022/10/11 07:06:02;;;;;;;16.02;12.18;;;22.00;99.90;;;;;;5128604;27;20433;-53
2022/10/11 07:09:00;;;;;;;18.70;12.45;;;22.00;99.90;;;;;;5086453;27;20486;-54
2022/10/11 07:11:51;;;;;;;13.30;10.18;;;21.90;99.90;;;;;;5074089;27;20408;-52
2022/10/11 07:14:55;;;;;;;17.20;11.73;;;22.00;99.90;;;;;;5094606;27;20384;-52
2022/10/11 07:17:50;;;;;;;18.92;11.18;;;22.40;99.90;;;;;;5138854;27;20841;-54
2022/10/11 07:20:42;;;;;;;16.65;10.63;;;24.30;99.90;;;;;;5098069;27;20784;-57
2022/10/11 07:23:38;;;;;;;12.75;9.77;;;26.70;99.90;;;;;;5137371;27;20143;-55
2022/10/11 07:26:35;;;;;;;14.68;9.60;;;29.10;99.90;;;;;;5087069;27;20407;-54
2022/10/11 07:29:38;;;;;;;17.30;10.50;;;29.30;99.90;;;;;;5108688;27;20428;-54
2022/10/11 07:32:31;;;;;;;13.43;8.77;;;29.70;99.90;;;;;;5095013;27;20483;-55
2022/10/11 07:35:35;;;;;;;11.63;8.75;;;30.70;99.90;;;;;;5126554;27;20777;-53
2022/10/11 07:38:46;;;;;;;13.82;9.10;;;30.90;99.00;;;;;;5133920;27;20402;-55
2022/10/11 07:41:38;;;;;;;12.05;9.30;;;28.60;99.90;;;;;;5098532;27;20440;-54
2022/10/11 07:44:33;;;;;;;14.40;9.98;;;29.00;99.90;;;;;;5126207;27;20364;-55
2022/10/11 07:47:28;;;;;;;9.85;7.68;;;29.60;99.90;;;;;;5141358;27;20151;-51
2022/10/11 07:50:22;;;;;;;11.73;7.07;;;31.00;99.40;;;;;;5086529;27;20896;-52
2022/10/11 07:53:16;;;;;;;12.25;8.27;;;32.60;97.50;;;;;;5101189;27;20919;-56
2022/10/11 07:56:11;;;;;;;12.27;8.00;;;33.40;95.10;;;;;;5086108;27;20402;-53
2022/10/11 07:59:14;;;;;;;14.82;9.00;;;33.50;95.60;;;;;;5127853;27;20395;-51
2022/10/11 08:02:04;;;;;;;12.98;8.32;;;33.50;94.90;;;;;;5076866;27;20408;-54
2022/10/11 08:04:55;;;;;;;11.60;7.53;;;33.70;94.80;;;;;;5126033;27;20351;-53
2022/10/11 08:08:01;;;;;;;12.43;7.18;;;33.80;94.80;;;;;;5128662;27;20419;-51
2022/10/11 08:11:10;;;;;;;13.00;7.85;;;32.60;95.00;;;;;;5129024;27;20392;-52
2022/10/11 08:14:07;;;;;;;11.30;8.32;;;31.30;95.60;;;;;;5113887;27;21109;-52
2022/10/11 08:17:03;;;;;;;10.48;7.50;;;31.30;95.60;;;;;;5086642;27;20464;-52
2022/10/11 08:19:58;;;;;;;10.65;7.45;;;29.70;97.20;;;;;;5184589;27;20427;-53
2022/10/11 08:22:52;;;;;;;12.05;8.27;;;29.80;97.60;;;;;;5107080;27;20121;-50
2022/10/11 08:25:56;;;;;;;11.57;7.55;;;31.20;96.40;;;;;;5127393;27;20146;-54
2022/10/11 08:28:47;;;;;;;9.65;7.78;;;32.40;96.10;;;;;;5107400;27;20404;-50
2022/10/11 08:31:39;;;;;;;16.85;7.78;;;32.20;95.20;;;;;;5093801;27;20771;-54
2022/10/11 08:34:39;;;;;;;14.50;7.55;;;33.10;94.60;;;;;;5140984;27;20397;-53
2022/10/11 08:37:35;;;;;;;9.30;6.93;;;34.40;94.00;;;;;;5068585;27;20491;-53
2022/10/11 08:40:27;;;;;;;9.02;6.60;;;35.20;93.40;;;;;;5119242;27;20404;-51
2022/10/11 08:43:30;;;;;;;11.13;7.38;;;36.10;92.60;;;;;;5054277;27;20369;-51
2022/10/11 08:46:37;;;;;;;11.25;6.43;;;35.50;92.10;;;;;;5027632;28;20037;-55
2022/10/11 08:49:41;;;;;;;9.98;6.65;;;35.70;91.80;;;;;;5127802;28;20521;-55
2022/10/11 08:53:13;;;;;;;11.45;6.93;;;35.90;91.90;;;;;;5014666;28;20039;-54
2022/10/11 08:56:20;;;;;;;10.20;6.80;;;32.80;92.40;;;;;;5000413;28;20403;-56
2022/10/11 08:59:57;;;;;;;6.75;5.28;;;33.50;92.20;;;;;;5004764;28;20036;-56
2022/10/11 09:03:35;;;;;;;8.52;6.20;;;35.60;91.50;;;;;;5023506;28;20050;-51
2022/10/11 09:06:54;;;;;;;8.10;5.75;;;35.40;91.60;;;;;;5037470;28;20500;-54
2022/10/11 09:10:00;;;;;;;8.75;6.38;;;34.60;90.90;;;;;;4995021;28;20043;-52
2022/10/11 09:13:32;;;;;;;7.93;5.25;;;34.10;91.40;;;;;;5028554;28;20038;-54
2022/10/11 09:17:41;;;;;;;9.18;4.90;;;34.30;91.10;;;;;;4998925;28;20046;-53
2022/10/11 09:21:14;;;;;;;8.65;5.47;;;37.50;90.30;;;;;;5009917;28;20030;-51
2022/10/11 09:24:44;;;;;;;8.30;5.05;;;37.70;85.40;;;;;;4998802;28;20042;-55
2022/10/11 09:28:06;;;;;;;5.93;5.18;;;37.20;88.90;;;;;;5047583;28;20032;-52
2022/10/11 09:31:36;;;;;;;9.65;5.10;;;38.40;85.50;;;;;;4999329;28;20042;-52
2022/10/11 09:34:42;;;;;;;12.13;5.45;;;39.60;84.80;;;;;;5012487;28;20377;-55
2022/10/11 09:38:03;;;;;;;9.77;5.28;;;37.90;82.50;;;;;;4999480;28;20037;-54
2022/10/11 09:41:27;;;;;;;8.88;5.22;;;36.40;85.20;;;;;;4999403;28;20384;-52
2022/10/11 09:44:39;;;;;;;6.63;5.50;;;35.90;86.50;;;;;;5006961;28;20415;-55
2022/10/11 09:47:43;;;;;;;6.87;4.90;;;38.50;85.00;;;;;;5019136;28;20504;-51
2022/10/11 09:50:49;;;;;;;7.22;5.05;;;39.30;82.10;;;;;;4998781;28;20401;-52
2022/10/11 09:53:55;;;;;;;8.93;5.20;;;38.80;82.90;;;;;;4990232;28;20038;-53
2022/10/11 09:56:59;;;;;;;8.85;4.63;;;40.20;83.00;;;;;;4988660;28;20038;-52
2022/10/11 10:00:10;;;;;;;9.07;4.53;;;40.20;79.00;;;;;;5006210;28;20389;-52
2022/10/11 10:03:31;;;;;;;9.20;4.57;;;40.90;79.00;;;;;;4982800;28;20043;-51
2022/10/11 10:06:36;;;;;;;8.30;4.00;;;37.30;78.00;;;;;;4981950;28;20038;-52
2022/10/11 10:10:27;;;;;;;10.40;4.38;;;38.20;79.00;;;;;;4990664;28;20046;-55
2022/10/11 10:13:49;;;;;;;5.05;4.40;;;38.20;78.20;;;;;;4989576;28;20045;-52
2022/10/11 10:17:07;;;;;;;5.95;3.90;;;39.40;77.10;;;;;;4985513;28;20034;-51
2022/10/11 10:20:26;;;;;;;7.13;4.50;;;38.80;74.90;;;;;;4989432;28;20042;-53
2022/10/11 10:23:35;;;;;;;7.75;5.43;;;38.10;77.30;;;;;;5002411;28;20032;-55
2022/10/11 10:26:40;;;;;;;;;;;38.00;77.60;;;;;;5000879;28;20049;-52
2022/10/11 10:30:01;;;;;;;8.48;4.90;;;37.60;77.90;;;;;;5015009;28;19917;-55
2022/10/11 10:33:09;;;;;;;5.72;4.55;;;38.80;75.70;;;;;;4984093;28;20050;-54
2022/10/11 10:36:28;;;;;;;7.03;4.22;;;40.30;73.50;;;;;;4987723;28;20054;-55
2022/10/11 10:39:45;;;;;;;8.38;5.38;;;41.40;71.60;;;;;;4978905;28;20042;-54
2022/10/11 10:42:50;;;;;;;7.38;4.72;;;39.60;72.00;;;;;;4995060;28;20038;-51
2022/10/11 10:46:21;;;;;;;9.20;5.15;;;38.90;72.60;;;;;;4984087;28;20035;-54
2022/10/11 10:49:30;;;;;;;6.32;4.45;;;39.00;73.40;;;;;;5020371;23;20045;-66
2022/10/11 10:53:06;;;;;;;6.95;5.15;;;40.50;73.60;;;;;;5042263;28;20029;-66
2022/10/11 10:56:17;;;;;;;9.75;6.05;;;36.90;76.20;;;;;;5049596;28;20041;-66
2022/10/11 11:00:00;;;;;;;10.50;5.28;;;35.80;76.40;;;;;;5042223;28;20024;-66
2022/10/11 11:03:09;;;;;;;6.78;4.85;;;35.90;75.60;;;;;;5032946;28;20051;-66
2022/10/11 11:06:38;;;;;;;9.40;5.32;;;35.20;74.40;;;;;;5034688;28;20045;-66
2022/10/11 11:09:59;;;;;;;7.00;5.33;;;35.40;76.60;;;;;;5044836;28;20029;-66
2022/10/11 11:13:22;;;;;;;7.32;6.00;;;36.00;75.80;;;;;;5046117;28;20040;-66
2022/10/11 11:16:45;;;;;;;8.57;6.20;;;36.00;76.20;;;;;;5043499;28;20366;-66
2022/10/11 11:20:26;;;;;;;6.65;5.32;;;34.90;78.90;;;;;;5040802;28;20029;-67
2022/10/11 11:23:38;;;;;;;9.18;4.88;;;37.90;76.10;;;;;;5045302;28;20045;-66
2022/10/11 11:27:15;;;;;;;7.85;5.18;;;40.80;72.40;;;;;;5045916;28;20364;-66
2022/10/11 11:30:33;;;;;;;6.05;5.20;;;40.90;71.70;;;;;;5043990;28;20029;-66
2022/10/11 11:34:14;;;;;;;6.47;5.50;;;37.40;73.00;;;;;;5045951;28;20044;-66
2022/10/11 11:37:42;;;;;;;8.63;5.32;;;35.80;74.20;;;;;;5043915;28;20048;-66
2022/10/11 11:40:54;;;;;;;11.02;6.35;;;37.00;73.70;;;;;;5039271;28;20079;-66
2022/10/11 11:44:25;;;;;;;9.40;5.53;;;37.40;75.20;;;;;;5038246;28;20404;-66
2022/10/11 11:47:32;;;;;;;;;;;38.00;72.90;;;;;;5041268;28;20048;-66
2022/10/11 11:50:42;;;;;;;8.35;5.22;;;38.60;72.70;;;;;;5048724;28;19923;-66
2022/10/11 11:54:05;;;;;;;9.82;5.40;;;36.10;74.50;;;;;;5044355;28;20037;-66
2022/10/11 11:57:49;;;;;;;6.72;5.55;;;38.20;72.90;;;;;;5041288;28;20041;-66
2022/10/11 12:01:28;;;;;;;7.40;6.18;;;38.60;72.00;;;;;;5040950;28;20058;-66
2022/10/11 12:04:39;;;;;;;7.00;5.97;;;37.50;73.10;;;;;;5045726;28;20041;-66
2022/10/11 12:07:54;;;;;;;9.55;6.45;;;33.80;74.50;;;;;;5043940;28;20048;-65
2022/10/11 12:11:04;;;;;;;8.77;6.82;;;33.60;77.70;;;;;;5033522;28;20391;-66
2022/10/11 12:14:38;;;;;;;7.35;6.65;;;34.20;76.40;;;;;;5043441;28;20033;-66
2022/10/11 12:17:54;;;;;;;10.45;6.47;;;34.80;76.10;;;;;;5044982;28;20037;-65
2022/10/11 12:21:32;;;;;;;8.57;7.28;;;34.20;76.20;;;;;;5039404;28;20040;-65
2022/10/11 12:24:56;;;;;;;7.88;6.30;;;32.50;78.20;;;;;;5043746;28;20057;-65
2022/10/11 12:28:21;;;;;;;10.18;6.80;;;34.80;77.70;;;;;;5044240;28;20046;-66
2022/10/11 12:31:32;;;;;;;7.40;5.82;;;35.20;73.40;;;;;;5044109;28;20048;-65
2022/10/11 12:34:40;;;;;;;9.25;5.55;;;36.00;74.20;;;;;;5042334;28;20040;-66
2022/10/11 12:37:50;;;;;;;6.68;5.88;;;37.10;74.40;;;;;;5045179;28;20180;-66
2022/10/11 12:41:15;;;;;;;8.27;6.35;;;36.10;74.10;;;;;;5019921;28;20505;-65
2022/10/11 12:44:25;;;;;;;7.97;6.07;;;34.70;75.20;;;;;;5037258;28;20026;-65
2022/10/11 12:47:58;;;;;;;9.10;6.30;;;34.00;74.60;;;;;;5039541;28;20209;-65
2022/10/11 12:51:21;;;;;;;11.50;6.40;;;31.40;78.60;;;;;;5038102;28;20538;-65
2022/10/11 12:54:44;;;;;;;10.25;7.13;;;32.00;79.70;;;;;;5045565;28;20036;-65
2022/10/11 12:58:03;;;;;;;10.52;7.57;;;32.20;80.10;;;;;;5041832;28;20040;-66
2022/10/11 13:01:16;;;;;;;10.32;7.18;;;32.50;79.40;;;;;;5046415;28;20044;-66
2022/10/11 13:04:27;;;;;;;9.18;5.90;;;34.40;76.90;;;;;;5041587;28;20048;-66
2022/10/11 13:07:34;;;;;;;10.43;5.78;;;34.70;78.00;;;;;;5042163;28;20025;-66
2022/10/11 13:10:46;;;;;;;8.05;6.03;;;34.60;76.40;;;;;;5042552;28;20056;-66
2022/10/11 13:13:54;;;;;;;8.18;5.65;;;36.40;75.90;;;;;;5047114;28;20049;-66
2022/10/11 13:17:18;;;;;;;7.82;5.97;;;36.80;74.70;;;;;;5033695;28;20503;-66
2022/10/11 13:20:28;;;;;;;7.25;5.47;;;37.30;74.70;;;;;;5041243;28;21868;-66
2022/10/11 13:23:37;;;;;;;6.22;5.57;;;37.40;74.20;;;;;;5044963;28;20044;-65
2022/10/11 13:26:47;;;;;;;10.75;6.63;;;35.90;74.80;;;;;;5045681;28;20036;-65
2022/10/11 13:29:54;;;;;;;11.75;7.03;;;32.80;76.60;;;;;;5048170;28;20044;-65
2022/10/11 13:32:59;;;;;;;10.20;7.53;;;30.80;80.20;;;;;;5047329;28;20474;-65
2022/10/11 13:36:08;;;;;;;10.25;6.95;;;31.00;80.60;;;;;;5050060;28;20056;-66
2022/10/11 13:39:33;;;;;;;7.20;6.13;;;31.20;80.20;;;;;;5051459;28;20392;-66
2022/10/11 13:42:37;;;;;;;9.70;6.53;;;32.30;79.10;;;;;;5045064;28;20044;-66
2022/10/11 13:45:41;;;;;;;10.52;6.63;;;33.30;78.00;;;;;;5044148;28;20044;-67
2022/10/11 13:48:45;;;;;;;7.45;6.03;;;33.80;78.50;;;;;;5048185;28;20048;-66
2022/10/11 13:51:59;;;;;;;8.80;6.25;;;32.90;78.90;;;;;;5048948;28;20042;-65
2022/10/11 13:55:04;;;;;;;7.78;6.10;;;31.40;80.70;;;;;;5048172;28;20396;-67
2022/10/11 13:58:28;;;;;;;14.25;8.10;;;30.70;82.10;;;;;;5051342;28;20392;-67
2022/10/11 14:01:39;;;;;;;9.60;7.47;;;30.90;82.50;;;;;;5044827;28;20044;-67
2022/10/11 14:04:43;;;;;;;9.50;6.55;;;31.70;82.20;;;;;;5034419;28;20036;-67
2022/10/11 14:07:47;;;;;;;8.52;6.65;;;31.70;82.00;;;;;;5047568;28;20051;-65
2022/10/11 14:10:51;;;;;;;10.00;7.45;;;31.70;82.30;;;;;;5046873;28;20046;-66
2022/10/11 14:13:55;;;;;;;11.52;7.03;;;31.20;83.80;;;;;;5049006;28;20044;-65
2022/10/11 14:17:20;;;;;;;11.20;7.38;;;30.30;85.60;;;;;;5050225;28;20048;-66
2022/10/11 14:20:39;;;;;;;16.25;10.38;;;29.60;87.40;;;;;;5045453;28;20044;-65
2022/10/11 14:23:44;;;;;;;17.52;11.00;;;29.50;88.00;;;;;;5034916;28;20036;-66
2022/10/11 14:26:53;;;;;;;12.60;9.15;;;29.10;90.00;;;;;;5048530;28;20415;-66
2022/10/11 14:29:58;;;;;;;11.43;7.53;;;28.50;90.60;;;;;;5049832;28;20048;-66
2022/10/11 14:33:04;;;;;;;8.48;7.20;;;27.90;91.00;;;;;;5036556;28;20044;-64
2022/10/11 14:36:10;;;;;;;11.05;7.40;;;27.50;91.40;;;;;;5050512;28;20040;-66
2022/10/11 14:39:17;;;;;;;11.13;7.13;;;27.10;91.50;;;;;;5048572;28;20052;-65
2022/10/11 14:42:41;;;;;;;8.98;6.78;;;27.10;91.50;;;;;;5049260;28;20044;-65
2022/10/11 14:45:45;;;;;;;9.90;7.00;;;27.10;91.50;;;;;;5045925;28;20040;-65
2022/10/11 14:48:50;;;;;;;7.95;6.32;;;27.00;91.50;;;;;;5050524;28;20033;-65
2022/10/11 14:51:56;;;;;;;7.95;6.30;;;27.10;91.10;;;;;;5046999;28;20044;-65
2022/10/11 14:55:01;;;;;;;24.13;6.63;;;27.30;91.40;;;;;;5051499;28;20041;-65
2022/10/11 14:58:06;;;;;;;9.20;6.25;;;27.20;91.20;;;;;;5047952;28;20040;-65
2022/10/11 15:01:12;;;;;;;9.35;6.75;;;27.00;91.50;;;;;;5050341;28;20037;-65
2022/10/11 15:04:17;;;;;;;10.07;5.93;;;26.70;92.20;;;;;;5049314;28;20040;-64
2022/10/11 15:07:21;;;;;;;9.10;6.07;;;26.60;92.10;;;;;;5019417;28;20056;-65
2022/10/11 15:10:30;;;;;;;8.68;6.90;;;26.40;92.20;;;;;;5048762;28;20041;-65
2022/10/11 15:13:34;;;;;;;9.65;7.18;;;26.30;93.20;;;;;;5044870;28;20043;-66